Time;durP1;ratioP1;P1;durP2;ratioP2;P2;SDS_P1;SDS_P2;PMS_P1;PMS_P2;Temp;Humidity;BMP_temperature;BMP_pressure;BME280_temperature;BME280_humidity;BME280_pressure;Samples;Min_cycle;Max_cycle;Signal;HPM_P1;HPM_P2
2021/08/02 00:01:40;;;;;;;;;;;;;;;21.95;100.00;100458.76;1707964;82;21690;-88
2021/08/02 00:04:10;;;;;;;32.33;29.03;;;;;;;21.99;100.00;100458.66;1705441;82;21536;-89
2021/08/02 00:06:53;;;;;;;31.05;27.77;;;;;;;22.01;100.00;100459.30;1703224;81;20962;-90
2021/08/02 00:09:26;;;;;;;31.30;27.73;;;;;;;22.03;100.00;100455.95;1704591;82;21101;-87
2021/08/02 00:12:17;;;;;;;29.80;26.70;;;;;;;22.06;100.00;100462.20;1711385;83;21002;-89
2021/08/02 00:14:46;;;;;;;30.70;26.93;;;;;;;22.03;100.00;100463.91;1710426;82;21571;-87
2021/08/02 00:17:13;;;;;;;28.90;25.95;;;;;;;22.02;100.00;100472.87;1683516;83;21101;-88
2021/08/02 00:19:42;;;;;;;30.00;25.95;;;;;;;21.90;100.00;100461.98;1711879;82;21122;-87
2021/08/02 00:22:11;;;;;;;30.92;27.80;;;;;;;21.82;100.00;100457.36;1698538;83;21084;-87
2021/08/02 00:24:40;;;;;;;31.20;26.82;;;;;;;21.82;100.00;100460.00;1715381;82;21045;-87
2021/08/02 00:27:10;;;;;;;30.68;27.37;;;;;;;21.85;100.00;100459.11;1689591;81;21127;-87
2021/08/02 00:29:39;;;;;;;;;;;;;;;21.87;100.00;100454.93;1733408;81;21011;-88
2021/08/02 00:32:07;;;;;;;27.82;24.92;;;;;;;21.83;100.00;100453.17;1683817;83;20169;-87
2021/08/02 00:34:36;;;;;;;27.80;25.10;;;;;;;21.78;100.00;100452.95;1709936;82;21080;-87
2021/08/02 00:37:07;;;;;;;28.57;24.18;;;;;;;21.69;100.00;100450.93;1685537;83;21005;-87
2021/08/02 00:39:52;;;;;;;30.97;23.22;;;;;;;21.59;100.00;100453.92;1702756;82;21049;-88
2021/08/02 00:42:46;;;;;;;26.93;24.32;;;;;;;21.55;100.00;100451.82;1679942;83;22061;-87
2021/08/02 00:45:24;;;;;;;26.52;23.73;;;;;;;21.51;100.00;100452.71;1696310;83;21590;-89
2021/08/02 00:48:09;;;;;;;28.27;25.02;;;;;;;21.46;100.00;100454.28;1687332;83;21025;-88
2021/08/02 00:50:46;;;;;;;27.50;24.55;;;;;;;21.43;100.00;100453.65;1713605;82;21500;-88
2021/08/02 00:53:19;;;;;;;25.68;23.10;;;;;;;21.49;100.00;100459.21;1699894;82;21169;-89
2021/08/02 00:55:57;;;;;;;27.35;24.55;;;;;;;21.49;100.00;100461.86;1687948;83;21119;-86
2021/08/02 00:58:29;;;;;;;29.37;26.37;;;;;;;21.48;100.00;100458.38;1691684;83;21761;-87
2021/08/02 01:00:58;;;;;;;;;;;;;;;21.50;100.00;100462.18;1637591;83;21056;-88
2021/08/02 01:03:31;;;;;;;32.30;26.45;;;;;;;21.50;100.00;100462.18;1661943;84;20309;-89
2021/08/02 01:06:00;;;;;;;31.93;24.00;;;;;;;21.51;100.00;100457.20;1651963;85;21088;-89
2021/08/02 01:08:32;;;;;;;50.33;25.52;;;;;;;21.54;100.00;100454.15;1678353;83;22057;-88
2021/08/02 01:11:06;;;;;;;44.45;24.50;;;;;;;21.51;100.00;100459.33;1681639;83;21010;-88
2021/08/02 01:13:36;;;;;;;40.80;25.00;;;;;;;21.53;100.00;100467.08;1683650;84;21187;-88
2021/08/02 01:16:07;;;;;;;27.00;24.02;;;;;;;21.50;100.00;100466.16;1683754;84;20978;-88
2021/08/02 01:18:38;;;;;;;32.35;24.40;;;;;;;21.52;100.00;100464.95;1684978;84;21203;-88
2021/08/02 01:21:10;;;;;;;25.23;22.67;;;;;;;21.56;100.00;100479.95;1679401;83;21128;-89
2021/08/02 01:23:39;;;;;;;25.60;22.97;;;;;;;21.56;100.00;100487.38;1685672;83;21005;-89
2021/08/02 01:26:48;;;;;;;25.23;22.50;;;;;;;21.55;100.00;100492.88;1658552;84;21056;-86
2021/08/02 01:30:16;;;;;;;24.85;22.37;;;;;;;21.50;100.00;100496.61;1652858;85;21112;-89
2021/08/02 01:32:46;;;;;;;28.75;22.22;;;;;;;21.40;100.00;100507.51;1683979;83;20953;-89
2021/08/02 01:35:16;;;;;;;23.60;21.30;;;;;;;21.25;100.00;100511.56;1668964;84;21108;-88
2021/08/02 01:37:45;;;;;;;23.77;21.45;;;;;;;21.19;100.00;100518.94;1688261;84;21016;-89
2021/08/02 01:40:14;;;;;;;23.87;21.37;;;;;;;21.12;100.00;100513.05;1697556;83;21125;-89
2021/08/02 01:42:43;;;;;;;26.23;21.45;;;;;;;21.05;100.00;100517.45;1695647;83;21155;-88
2021/08/02 01:45:12;;;;;;;31.07;21.37;;;;;;;21.03;100.00;100512.03;1676377;83;21098;-88
2021/08/02 01:47:54;;;;;;;25.02;22.45;;;;;;;21.06;100.00;100511.67;1704407;83;21163;-88
2021/08/02 01:50:58;;;;;;;23.40;21.00;;;;;;;21.09;100.00;100517.41;1682379;83;20971;-87
2021/08/02 01:54:41;;;;;;;;;;;;;;;;;;;;;
2021/08/02 01:57:10;;;;;;;28.38;22.55;;;;;;;21.06;100.00;100524.39;1680788;82;21608;-89
2021/08/02 02:00:02;;;;;;;25.55;22.82;;;;;;;21.12;100.00;100517.02;1706291;83;20957;-88
2021/08/02 02:02:33;;;;;;;30.75;23.42;;;;;;;21.18;100.00;100518.62;1655089;84;21157;-88
2021/08/02 02:05:06;;;;;;;25.50;22.67;;;;;;;21.20;100.00;100518.73;1630034;84;21525;-89
2021/08/02 02:07:48;;;;;;;35.08;23.40;;;;;;;21.24;100.00;100512.56;1652280;84;21030;-87
2021/08/02 02:10:21;;;;;;;27.22;24.35;;;;;;;21.27;100.00;100522.79;1667289;84;20972;-87
2021/08/02 02:12:49;;;;;;;30.92;22.42;;;;;;;21.30;100.00;100518.94;1671847;84;21018;-86
2021/08/02 02:15:19;;;;;;;27.50;23.90;;;;;;;21.32;100.00;100520.38;1672426;84;21509;-88
2021/08/02 02:17:49;;;;;;;26.00;23.22;;;;;;;21.36;100.00;100520.30;1654284;84;20999;-88
2021/08/02 02:20:20;;;;;;;26.62;23.55;;;;;;;21.38;100.00;100519.63;1665065;84;21054;-87
2021/08/02 02:22:48;;;;;;;25.57;22.95;;;;;;;21.33;100.00;100520.70;1677081;83;21149;-87
2021/08/02 02:25:16;;;;;;;26.17;23.62;;;;;;;21.25;100.00;100516.85;1661942;83;21085;-87
2021/08/02 02:27:44;;;;;;;27.42;24.52;;;;;;;21.24;100.00;100521.83;1677511;83;21212;-86
2021/08/02 02:30:13;;;;;;;29.90;26.87;;;;;;;21.22;100.00;100522.52;1659883;84;20970;-87
2021/08/02 02:32:42;;;;;;;29.05;26.25;;;;;;;21.23;100.00;100529.45;1646750;86;21639;-87
2021/08/02 02:35:12;;;;;;;28.65;26.10;;;;;;;21.22;100.00;100523.35;1608069;87;21734;-86
2021/08/02 02:37:40;;;;;;;29.57;26.48;;;;;;;21.16;100.00;100527.24;1660529;84;21072;-89
2021/08/02 02:40:10;;;;;;;30.32;26.75;;;;;;;21.13;100.00;100528.44;1679912;83;22297;-88
2021/08/02 02:42:38;;;;;;;32.45;26.87;;;;;;;21.16;100.00;100529.89;1688217;83;21045;-88
2021/08/02 02:45:09;;;;;;;31.68;27.42;;;;;;;21.14;100.00;100526.59;1683037;84;21564;-90
2021/08/02 02:47:36;;;;;;;40.92;27.85;;;;;;;21.13;100.00;100532.41;1669892;84;20970;-89
2021/08/02 02:50:05;;;;;;;54.63;30.02;;;;;;;21.17;100.00;100523.59;1673748;83;21053;-88
2021/08/02 02:52:34;;;;;;;42.27;28.85;;;;;;;21.21;100.00;100516.41;1688554;83;21158;-87
2021/08/02 02:55:05;;;;;;;31.33;27.98;;;;;;;21.23;100.00;100512.24;1678580;84;21457;-89
2021/08/02 02:57:32;;;;;;;88.27;38.02;;;;;;;21.18;100.00;100514.64;1680546;84;21052;-89
2021/08/02 03:00:03;;;;;;;86.10;43.23;;;;;;;21.12;100.00;100513.56;1701149;82;21098;-87
2021/08/02 03:02:30;;;;;;;47.25;35.40;;;;;;;21.22;100.00;100509.27;1686468;82;21140;-86
2021/08/02 03:04:59;;;;;;;46.53;35.78;;;;;;;21.34;100.00;100520.19;1693239;82;21169;-86
2021/08/02 03:07:29;;;;;;;38.17;32.23;;;;;;;21.36;100.00;100526.92;1715877;81;21125;-86
2021/08/02 03:09:59;;;;;;;49.30;31.12;;;;;;;21.41;100.00;100533.83;1689114;82;21090;-88
2021/08/02 03:12:30;;;;;;;34.60;31.33;;;;;;;21.42;100.00;100534.14;1691252;83;21121;-86
2021/08/02 03:14:56;;;;;;;33.60;30.25;;;;;;;21.41;100.00;100525.88;1710296;82;20971;-86
2021/08/02 03:17:23;;;;;;;33.67;30.55;;;;;;;21.38;100.00;100524.92;1686800;82;21734;-88
2021/08/02 03:19:51;;;;;;;33.65;30.50;;;;;;;21.38;100.00;100532.06;1690608;83;21160;-86
2021/08/02 03:22:42;;;;;;;34.90;31.77;;;;;;;21.38;100.00;100531.54;1694199;83;21580;-88
2021/08/02 03:25:44;;;;;;;35.25;31.93;;;;;;;21.35;100.00;100529.26;1705058;80;21204;-88
2021/08/02 03:28:48;;;;;;;36.53;32.95;;;;;;;21.30;100.00;100529.53;1642916;84;21164;-90
2021/08/02 03:31:23;;;;;;;35.48;32.28;;;;;;;21.31;100.00;100533.30;1631096;86;22197;-87
2021/08/02 03:33:53;;;;;;;37.95;34.43;;;;;;;21.34;100.00;100528.97;1655203;83;21075;-89
2021/08/02 03:36:21;;;;;;;36.40;32.93;;;;;;;21.32;100.00;100524.36;1686659;83;21092;-87
2021/08/02 03:38:50;;;;;;;37.65;34.00;;;;;;;21.31;100.00;100526.69;1668973;82;21050;-87
2021/08/02 03:41:20;;;;;;;35.90;32.67;;;;;;;21.31;100.00;100520.58;1694954;81;21081;-88
2021/08/02 03:43:51;;;;;;;37.40;33.92;;;;;;;21.31;100.00;100531.98;1661227;84;21202;-87
2021/08/02 03:46:20;;;;;;;37.45;33.65;;;;;;;21.31;100.00;100531.17;1683025;81;21115;-89
2021/08/02 03:48:48;;;;;;;37.42;34.03;;;;;;;21.32;100.00;100528.81;1683244;82;21041;-87
2021/08/02 03:51:15;;;;;;;38.90;35.10;;;;;;;21.35;100.00;100527.94;1717100;82;21036;-87
2021/08/02 03:53:45;;;;;;;40.98;37.08;;;;;;;21.37;100.00;100525.92;1693256;81;21082;-87
2021/08/02 03:56:15;;;;;;;40.25;36.53;;;;;;;21.36;100.00;100524.80;1664831;84;21199;-88
2021/08/02 03:58:43;;;;;;;37.63;34.13;;;;;;;21.32;100.00;100523.03;1670797;83;21018;-88
2021/08/02 04:01:11;;;;;;;39.15;35.40;;;;;;;21.35;100.00;100519.98;1698562;82;21540;-88
2021/08/02 04:03:41;;;;;;;40.17;36.60;;;;;;;21.45;100.00;100524.99;1684645;82;21028;-90
2021/08/02 04:06:10;;;;;;;38.70;35.28;;;;;;;21.54;100.00;100520.38;1639758;84;21100;-88
2021/08/02 04:08:37;;;;;;;39.60;35.83;;;;;;;21.64;100.00;100522.23;1652240;85;21809;-88
2021/08/02 04:11:04;;;;;;;40.00;36.25;;;;;;;21.75;100.00;100520.89;1660029;83;21008;-87
2021/08/02 04:13:32;;;;;;;39.65;36.15;;;;;;;21.82;100.00;100520.44;1719850;81;21172;-88
2021/08/02 04:15:59;;;;;;;37.30;33.63;;;;;;;21.89;100.00;100521.30;1685258;82;21093;-88
2021/08/02 04:18:28;;;;;;;41.08;37.17;;;;;;;21.98;100.00;100516.70;1703457;81;21013;-87
2021/08/02 04:20:55;;;;;;;40.98;37.28;;;;;;;22.08;100.00;100519.48;1685968;82;21486;-87
2021/08/02 04:23:23;;;;;;;40.85;36.95;;;;;;;22.16;100.00;100516.69;1692754;82;21124;-87
2021/08/02 04:25:50;;;;;;;40.83;37.25;;;;;;;22.25;100.00;100522.67;1687944;83;21149;-88
2021/08/02 04:28:17;;;;;;;42.10;38.28;;;;;;;22.32;100.00;100521.68;1696946;81;21063;-87
2021/08/02 04:30:44;;;;;;;41.20;37.25;;;;;;;22.41;100.00;100520.23;1685711;83;21147;-90
2021/08/02 04:33:11;;;;;;;40.33;36.53;;;;;;;22.49;100.00;100522.72;1685612;83;21072;-90
2021/08/02 04:35:41;;;;;;;40.43;36.40;;;;;;;22.57;100.00;100521.75;1691176;81;21065;-88
2021/08/02 04:38:08;;;;;;;39.67;35.83;;;;;;;22.66;100.00;100529.34;1684750;81;21638;-89
2021/08/02 04:40:36;;;;;;;41.75;37.98;;;;;;;22.75;100.00;100518.55;1699568;83;21143;-88
2021/08/02 04:43:04;;;;;;;40.88;37.00;;;;;;;22.82;100.00;100519.39;1661844;84;21182;-89
2021/08/02 04:45:31;;;;;;;41.65;37.75;;;;;;;22.90;100.00;100520.55;1661510;84;21859;-87
2021/08/02 04:48:00;;;;;;;42.43;37.98;;;;;;;22.99;100.00;100517.22;1722164;80;21234;-89
2021/08/02 04:50:30;;;;;;;40.65;36.93;;;;;;;23.08;100.00;100517.84;1705990;81;21157;-88
2021/08/02 04:52:57;;;;;;;40.43;36.55;;;;;;;23.17;100.00;100513.98;1671192;83;21074;-90
2021/08/02 04:55:24;;;;;;;41.28;37.35;;;;;;;23.26;100.00;100521.28;1670503;83;21148;-85
2021/08/02 04:57:52;;;;;;;41.35;37.55;;;;;;;23.36;100.00;100520.88;1726729;81;21133;-85
2021/08/02 05:00:19;;;;;;;42.60;38.48;;;;;;;23.44;100.00;100519.36;1738120;81;21046;-90
2021/08/02 05:02:49;;;;;;;41.58;37.85;;;;;;;23.55;100.00;100520.62;1707051;81;21108;-90
2021/08/02 05:05:16;;;;;;;40.73;36.93;;;;;;;23.66;100.00;100521.84;1741651;80;21060;-87
2021/08/02 05:07:43;;;;;;;44.27;40.25;;;;;;;23.76;100.00;100517.75;1721844;80;21585;-89
2021/08/02 05:10:12;;;;;;;41.77;37.83;;;;;;;23.86;100.00;100519.98;1706393;82;21119;-88
2021/08/02 05:12:40;;;;;;;41.40;37.38;;;;;;;23.97;100.00;100519.09;1666863;83;21065;-90
2021/08/02 05:15:10;;;;;;;40.60;36.85;;;;;;;24.04;100.00;100522.03;1690960;82;21113;-88
2021/08/02 05:17:39;;;;;;;41.47;37.47;;;;;;;24.14;100.00;100512.81;1684346;83;21125;-87
2021/08/02 05:20:07;;;;;;;40.17;36.55;;;;;;;24.22;100.00;100509.44;1694794;82;21084;-86
2021/08/02 05:22:34;;;;;;;39.33;35.65;;;;;;;24.32;100.00;100509.48;1659047;83;21100;-87
2021/08/02 05:25:02;;;;;;;39.90;36.03;;;;;;;24.40;100.00;100506.59;1688703;81;21090;-86
2021/08/02 05:27:30;;;;;;;39.48;35.78;;;;;;;24.50;100.00;100508.84;1721648;80;21102;-85
2021/08/02 05:30:11;;;;;;;;;;;;;;;;;;;;;
2021/08/02 05:32:27;;;;;;;39.08;35.23;;;;;;;24.69;100.00;100502.63;1644678;83;21019;-88
2021/08/02 05:34:55;;;;;;;38.88;34.95;;;;;;;24.80;100.00;100509.13;1666903;83;21184;-88
2021/08/02 05:37:22;;;;;;;38.85;35.15;;;;;;;24.90;100.00;100506.03;1664499;83;21106;-87
2021/08/02 05:39:54;;;;;;;36.50;33.10;;;;;;;24.99;100.00;100510.08;1683043;83;21008;-88
2021/08/02 05:42:21;;;;;;;37.45;34.05;;;;;;;25.08;100.00;100505.30;1683067;83;21047;-85
2021/08/02 13:45:52;;;;;;;18.77;16.93;;;;;;;34.00;44.98;100213.66;1818496;78;27232;-86
2021/08/02 13:48:23;;;;;;;17.62;15.60;;;;;;;33.92;43.83;100205.61;1823418;78;20906;-86
2021/08/02 13:50:55;;;;;;;21.95;16.05;;;;;;;33.89;45.19;100208.89;1823562;78;21543;-88
2021/08/02 13:53:22;;;;;;;;;;;;;;;33.89;44.86;100209.69;1764861;80;21063;-88
2021/08/02 13:55:49;;;;;;;23.67;21.30;;;;;;;33.90;44.86;100211.30;1789624;79;20175;-88
2021/08/02 13:58:20;;;;;;;30.12;27.22;;;;;;;33.91;43.61;100209.39;1762256;80;20906;-89
2021/08/02 14:00:46;;;;;;;26.48;23.35;;;;;;;33.83;44.88;100205.39;1751341;79;21112;-88
2021/08/02 14:03:15;;;;;;;25.95;22.13;;;;;;;33.80;46.51;100209.46;1722953;80;21333;-88
2021/08/02 14:05:43;;;;;;;26.25;23.67;;;;;;;33.78;45.91;100214.33;1779128;80;21522;-88
2021/08/02 14:08:11;;;;;;;26.48;23.77;;;;;;;33.76;46.50;100224.59;1752777;79;21018;-88
2021/08/02 14:10:47;;;;;;;26.80;23.42;;;;;;;33.74;45.73;100220.57;1741523;80;21055;-89
2021/08/02 14:13:18;;;;;;;30.75;25.50;;;;;;;33.70;45.89;100211.41;1736594;80;21021;-90
2021/08/02 14:15:55;;;;;;;27.40;24.00;;;;;;;33.63;47.05;100203.09;1762273;80;21496;-87
2021/08/02 14:18:42;;;;;;;26.93;24.12;;;;;;;33.53;46.33;100205.05;1762989;80;21057;-88
2021/08/02 14:21:13;;;;;;;34.60;25.43;;;;;;;33.37;46.23;100198.95;1742963;78;20981;-88
2021/08/02 14:23:43;;;;;;;30.50;24.57;;;;;;;33.16;47.31;100199.02;1760671;80;21496;-88
2021/08/02 14:26:11;;;;;;;26.20;23.62;;;;;;;33.03;48.91;100205.81;1783716;78;21039;-89
2021/08/02 14:28:42;;;;;;;27.25;24.45;;;;;;;32.93;52.68;100203.97;1727144;81;21149;-90
2021/08/02 14:31:14;;;;;;;27.02;24.23;;;;;;;32.84;53.49;100207.78;1739167;79;21108;-90
2021/08/02 14:33:44;;;;;;;30.88;24.00;;;;;;;32.77;52.93;100213.16;1792468;78;21036;-88
2021/08/02 14:36:13;;;;;;;27.48;24.65;;;;;;;32.67;54.62;100214.00;1765290;78;21120;-88
2021/08/02 14:38:48;;;;;;;27.55;24.18;;;;;;;32.56;56.78;100211.32;1787622;79;21061;-89
2021/08/02 14:41:29;;;;;;;26.35;23.40;;;;;;;32.46;60.06;100211.88;1813382;79;22205;-88
2021/08/02 14:43:58;;;;;;;28.38;24.43;;;;;;;32.38;61.78;100218.09;1808700;78;20995;-90
2021/08/02 14:46:28;;;;;;;28.35;25.37;;;;;;;32.30;64.94;100229.94;1790204;78;21013;-89
2021/08/02 14:48:58;;;;;;;27.93;25.00;;;;;;;32.21;67.36;100239.08;1767254;79;21089;-88
2021/08/02 14:51:45;;;;;;;28.87;25.95;;;;;;;32.11;68.33;100246.63;1784307;79;21057;-88
2021/08/02 14:54:23;;;;;;;;;;;;;;;;;;;;;
2021/08/02 14:56:49;;;;;;;41.02;29.02;;;;;;;31.82;78.33;100247.66;1688675;83;21080;-87
2021/08/02 15:02:43;;;;;;;49.65;29.32;;;;;;;31.74;79.80;100261.09;1539842;90;21186;-91
2021/08/02 15:05:17;;;;;;;44.73;28.10;;;;;;;31.60;90.44;100264.81;1648342;82;21045;-90
2021/08/02 15:07:48;;;;;;;37.42;28.90;;;;;;;31.49;90.99;100262.61;1772049;79;21593;-92
2021/08/02 15:10:16;;;;;;;35.97;28.50;;;;;;;31.41;93.08;100267.15;1759057;79;21033;-89
2021/08/02 15:12:51;;;;;;;33.73;28.75;;;;;;;31.29;92.61;100272.23;1757247;78;22191;-90
2021/08/02 15:15:18;;;;;;;36.42;29.72;;;;;;;31.19;92.56;100272.17;1775355;79;21057;-89
2021/08/02 15:17:50;;;;;;;31.37;27.98;;;;;;;31.10;95.80;100273.22;1798642;78;21131;-91
2021/08/02 15:20:35;;;;;;;32.10;27.90;;;;;;;31.05;99.38;100276.38;1802521;77;21937;-91
2021/08/02 15:23:04;;;;;;;40.20;28.92;;;;;;;30.99;100.00;100283.09;1765611;80;21048;-89
2021/08/02 15:25:32;;;;;;;30.57;27.45;;;;;;;30.97;100.00;100279.02;1792625;79;21104;-89
2021/08/02 15:28:02;;;;;;;30.72;27.42;;;;;;;30.94;100.00;100272.28;1801856;78;21504;-90
2021/08/02 15:30:31;;;;;;;32.10;28.32;;;;;;;30.92;100.00;100268.25;1784476;78;21009;-92
2021/08/02 15:33:00;;;;;;;33.63;26.52;;;;;;;30.88;100.00;100280.05;1776817;78;21071;-90
2021/08/02 15:35:28;;;;;;;38.13;26.90;;;;;;;30.79;100.00;100279.73;1784983;79;21319;-87
2021/08/02 15:37:56;;;;;;;27.42;24.47;;;;;;;30.73;100.00;100271.34;1765766;81;21107;-88
2021/08/02 15:40:28;;;;;;;28.57;25.72;;;;;;;30.70;100.00;100267.85;1756942;81;21017;-89
2021/08/02 15:42:55;;;;;;;33.42;25.55;;;;;;;30.65;100.00;100269.97;1766948;80;21005;-89
2021/08/02 15:45:27;;;;;;;26.57;23.98;;;;;;;30.56;100.00;100267.48;1766944;80;21047;-87
2021/08/02 15:47:58;;;;;;;28.67;25.52;;;;;;;30.49;100.00;100264.17;1766897;80;21029;-87
2021/08/02 15:50:32;;;;;;;28.45;25.40;;;;;;;30.43;100.00;100266.55;1767152;80;20993;-89
2021/08/02 15:53:09;;;;;;;27.62;24.75;;;;;;;30.37;100.00;100263.81;1767040;80;21024;-88
2021/08/02 15:55:43;;;;;;;28.92;23.55;;;;;;;30.32;100.00;100259.75;1730503;80;21528;-86
2021/08/02 15:58:19;;;;;;;25.35;22.75;;;;;;;30.26;100.00;100268.00;1734589;81;21091;-88
2021/08/02 16:00:57;;;;;;;23.25;20.65;;;;;;;30.18;100.00;100264.73;1760808;80;21005;-88
2021/08/02 16:03:38;;;;;;;25.60;21.90;;;;;;;30.10;100.00;100263.05;1779767;80;21104;-87
2021/08/02 16:06:06;;;;;;;25.70;19.87;;;;;;;30.02;100.00;100266.98;1781052;80;21123;-86
2021/08/02 16:08:44;;;;;;;22.50;19.92;;;;;;;29.95;100.00;100261.84;1792629;79;21041;-88
2021/08/02 16:11:17;;;;;;;19.87;17.90;;;;;;;29.88;100.00;100269.27;1756218;80;21168;-88
2021/08/02 16:13:48;;;;;;;23.57;19.17;;;;;;;29.80;100.00;100265.14;1782046;79;21561;-89
2021/08/02 16:16:17;;;;;;;23.70;19.48;;;;;;;29.72;100.00;100258.38;1766503;79;21009;-87
2021/08/02 16:18:45;;;;;;;34.50;19.35;;;;;;;29.67;100.00;100273.59;1796893;79;21033;-85
2021/08/02 16:21:15;;;;;;;23.15;17.80;;;;;;;29.57;100.00;100275.61;1799242;79;21859;-87
2021/08/02 16:23:41;;;;;;;21.93;19.07;;;;;;;29.49;100.00;100274.70;1761600;80;21864;-89
2021/08/02 16:26:08;;;;;;;20.75;18.65;;;;;;;29.42;100.00;100282.95;1789631;79;20981;-91
2021/08/02 16:28:35;;;;;;;21.65;19.32;;;;;;;29.35;100.00;100278.31;1769841;79;21067;-87
2021/08/02 16:31:02;;;;;;;21.17;18.15;;;;;;;29.28;100.00;100277.91;1772331;79;21653;-87
2021/08/02 16:33:30;;;;;;;43.00;21.02;;;;;;;29.23;100.00;100279.20;1794324;79;21098;-88
2021/08/02 16:35:57;;;;;;;23.83;19.32;;;;;;;29.15;100.00;100275.61;1774735;79;22230;-88
2021/08/02 16:38:24;;;;;;;38.90;19.73;;;;;;;29.08;100.00;100283.02;1794952;79;21051;-87
2021/08/02 16:40:51;;;;;;;46.00;20.12;;;;;;;29.01;100.00;100282.39;1769883;79;21079;-86
2021/08/02 16:43:18;;;;;;;30.70;19.73;;;;;;;28.92;100.00;100281.46;1764755;79;21013;-88
2021/08/02 16:45:46;;;;;;;28.57;19.05;;;;;;;28.85;100.00;100286.19;1738899;79;21110;-86
2021/08/02 16:48:13;;;;;;;44.27;21.05;;;;;;;28.77;100.00;100284.72;1793560;79;21147;-89
2021/08/02 16:50:40;;;;;;;51.60;20.80;;;;;;;28.71;100.00;100283.02;1761194;79;21083;-88
2021/08/02 16:53:08;;;;;;;36.23;22.32;;;;;;;28.65;100.00;100291.47;1766378;79;21102;-88
2021/08/02 16:55:37;;;;;;;24.55;21.17;;;;;;;28.60;100.00;100294.08;1794241;79;21041;-85
2021/08/02 16:58:04;;;;;;;29.12;21.23;;;;;;;28.54;100.00;100292.89;1683413;80;21071;-86
2021/08/02 17:00:31;;;;;;;24.20;21.55;;;;;;;28.48;100.00;100291.48;1765193;79;21808;-85
2021/08/02 17:02:58;;;;;;;49.23;23.12;;;;;;;28.42;100.00;100294.30;1791417;79;21017;-93
2021/08/02 17:05:25;;;;;;;35.95;21.77;;;;;;;28.38;100.00;100293.17;1769691;79;21057;-87
2021/08/02 17:07:53;;;;;;;39.27;21.48;;;;;;;28.32;100.00;100294.41;1769152;79;21078;-87
2021/08/02 17:10:20;;;;;;;32.40;22.65;;;;;;;28.29;100.00;100300.27;1767492;79;21664;-87
2021/08/02 17:12:47;;;;;;;27.93;21.52;;;;;;;28.24;100.00;100298.85;1742934;79;21482;-89
2021/08/02 17:15:15;;;;;;;30.88;20.77;;;;;;;28.17;100.00;100301.66;1799403;79;21013;-88
2021/08/02 17:17:42;;;;;;;29.20;20.62;;;;;;;28.12;100.00;100301.55;1766100;79;21053;-89
2021/08/02 17:20:11;;;;;;;25.72;20.88;;;;;;;28.07;100.00;100300.14;1799935;79;21010;-87
2021/08/02 17:22:40;;;;;;;24.27;21.20;;;;;;;28.01;100.00;100308.56;1799406;79;21004;-90
2021/08/02 17:25:09;;;;;;;29.72;23.42;;;;;;;27.94;100.00;100309.23;1766430;79;21322;-89
2021/08/02 17:27:39;;;;;;;34.05;23.38;;;;;;;27.88;100.00;100310.73;1768114;79;21576;-88
2021/08/02 17:30:09;;;;;;;24.63;22.02;;;;;;;27.78;100.00;100311.31;1769710;79;20977;-91
2021/08/02 17:32:36;;;;;;;25.50;22.73;;;;;;;27.67;100.00;100311.64;1765829;79;21056;-88
2021/08/02 17:35:08;;;;;;;27.62;22.35;;;;;;;27.54;100.00;100310.05;1712056;81;21173;-90
2021/08/02 17:37:35;;;;;;;24.15;21.23;;;;;;;27.40;100.00;100315.63;1770709;79;21801;-89
2021/08/02 17:40:04;;;;;;;28.62;20.75;;;;;;;27.32;100.00;100321.33;1763653;80;21067;-89
2021/08/02 17:42:41;;;;;;;37.03;21.80;;;;;;;27.26;100.00;100322.78;1768678;79;21015;-88
2021/08/02 17:45:02;;;;;;;34.48;21.07;;;;;;;27.20;100.00;100325.88;1791952;78;21524;-91
2021/08/02 17:47:31;;;;;;;30.23;21.48;;;;;;;27.18;100.00;100362.17;1781524;79;21633;-93
2021/08/02 17:49:58;;;;;;;30.50;20.30;;;;;;;26.89;100.00;100422.64;1759099;78;21034;-91
2021/08/02 17:52:25;;;;;;;34.90;22.42;;;;;;;26.60;100.00;100433.11;1798224;77;21012;-94
2021/08/02 17:54:52;;;;;;;32.55;17.62;;;;;;;26.39;100.00;100448.58;1774790;78;20918;-92
2021/08/02 17:57:19;;;;;;;27.07;13.43;;;;;;;26.18;100.00;100439.69;1801159;78;20938;-89
2021/08/02 17:59:49;;;;;;;22.27;13.55;;;;;;;25.89;100.00;100425.50;1828471;78;21084;-89
2021/08/02 18:02:16;;;;;;;21.73;12.05;;;;;;;25.68;100.00;100462.73;1828291;78;21090;-92
2021/08/02 18:04:43;;;;;;;15.18;11.10;;;;;;;25.51;100.00;100463.82;1828160;78;20934;-89
2021/08/02 18:07:10;;;;;;;16.00;11.63;;;;;;;25.33;100.00;100473.36;1813761;78;20949;-88
2021/08/02 18:09:37;;;;;;;15.40;12.03;;;;;;;25.17;100.00;100466.72;1812588;78;21040;-88
2021/08/02 18:12:05;;;;;;;18.40;12.43;;;;;;;25.04;100.00;100457.47;1794584;78;21045;-87
2021/08/02 18:14:34;;;;;;;13.62;11.40;;;;;;;24.87;100.00;100463.34;1813426;78;21528;-88
2021/08/02 18:17:03;;;;;;;13.60;11.80;;;;;;;24.76;100.00;100474.66;1799344;79;21041;-90
2021/08/02 18:19:31;;;;;;;14.55;11.43;;;;;;;24.67;100.00;100473.27;1800355;79;21076;-91
2021/08/02 18:21:58;;;;;;;13.95;11.53;;;;;;;24.55;100.00;100468.59;1790629;79;21440;-90
2021/08/02 18:24:26;;;;;;;15.05;11.73;;;;;;;24.45;100.00;100473.55;1763924;79;21093;-89
2021/08/02 18:26:53;;;;;;;16.67;12.10;;;;;;;24.34;100.00;100482.17;1803643;78;21137;-90
2021/08/02 18:29:20;;;;;;;14.38;11.85;;;;;;;24.21;100.00;100479.87;1779074;79;20974;-91
2021/08/02 18:31:47;;;;;;;17.82;12.70;;;;;;;24.13;100.00;100468.13;1773443;79;21013;-90
2021/08/02 18:34:31;;;;;;;13.68;11.40;;;;;;;24.05;100.00;100469.15;1802394;79;21071;-89
2021/08/02 18:37:04;;;;;;;17.55;12.68;;;;;;;23.98;100.00;100456.39;1790247;79;21079;-90
2021/08/02 18:39:32;;;;;;;14.20;12.60;;;;;;;23.89;100.00;100456.27;1763461;79;21775;-87
2021/08/02 18:42:00;;;;;;;16.57;12.40;;;;;;;23.81;100.00;100454.66;1763553;79;21115;-88
2021/08/02 18:44:27;;;;;;;14.10;11.93;;;;;;;23.76;100.00;100456.61;1768182;79;21037;-87
2021/08/02 18:46:58;;;;;;;15.03;12.03;;;;;;;23.75;100.00;100461.61;1758027;79;21119;-92
2021/08/02 18:49:27;;;;;;;13.68;11.55;;;;;;;23.75;100.00;100456.83;1766628;79;20993;-88
